createdAt,value
2018-11-23T00:03:03.822Z,28.17
2018-11-23T00:06:08.248Z,27.63
2018-11-23T00:09:12.655Z,27.37
2018-11-23T00:12:17.124Z,27.80
2018-11-23T00:15:23.234Z,29.10
2018-11-23T00:18:27.688Z,27.77
2018-11-23T00:21:32.137Z,29.27
2018-11-23T00:24:36.534Z,28.57
2018-11-23T00:27:41.227Z,26.50
2018-11-23T00:30:45.663Z,27.87
2018-11-23T00:33:50.102Z,26.43
2018-11-23T00:36:54.524Z,28.53
2018-11-23T00:39:58.967Z,27.50
2018-11-23T00:43:03.323Z,27.63
2018-11-23T00:46:08.003Z,27.43
2018-11-23T00:49:12.465Z,27.20
2018-11-23T00:52:17.107Z,27.77
2018-11-23T00:55:22.315Z,27.27
2018-11-23T00:58:26.705Z,27.57
2018-11-23T01:01:35.230Z,27.57
2018-11-23T01:04:39.718Z,27.10
2018-11-23T01:07:44.717Z,28.37
2018-11-23T01:10:49.097Z,28.87
2018-11-23T01:13:54.448Z,29.77
2018-11-23T01:16:58.848Z,28.60
2018-11-23T01:20:03.319Z,28.07
2018-11-23T01:23:07.722Z,28.40
2018-11-23T01:26:12.168Z,30.13
2018-11-23T01:29:16.578Z,29.40
2018-11-23T01:32:21.124Z,29.47
2018-11-23T01:35:25.541Z,29.70
2018-11-23T01:38:29.971Z,30.20
2018-11-23T01:41:34.414Z,30.57
2018-11-23T01:44:44.039Z,30.40
2018-11-23T01:47:48.542Z,30.70
2018-11-23T01:50:53.003Z,30.43
2018-11-23T01:53:57.422Z,32.73
2018-11-23T01:57:01.792Z,30.53
2018-11-23T02:00:07.678Z,30.50
2018-11-23T02:03:12.098Z,31.30
2018-11-23T02:06:16.490Z,29.97
2018-11-23T02:09:20.943Z,30.93
2018-11-23T02:12:25.396Z,32.83
2018-11-23T02:15:29.858Z,32.27
2018-11-23T02:18:34.323Z,31.37
2018-11-23T02:21:38.689Z,32.60
2018-11-23T02:24:43.173Z,33.30
2018-11-23T02:27:47.606Z,33.77
2018-11-23T02:30:52.585Z,34.53
2018-11-23T02:33:56.943Z,33.03
2018-11-23T02:37:01.429Z,33.97
2018-11-23T02:40:06.083Z,33.00
2018-11-23T02:43:10.527Z,32.47
2018-11-23T02:46:14.913Z,32.60
2018-11-23T02:49:19.374Z,35.10
2018-11-23T02:52:23.898Z,34.47
2018-11-23T02:55:28.281Z,34.00
2018-11-23T02:58:32.721Z,33.70
2018-11-23T03:01:37.139Z,35.57
2018-11-23T03:04:41.507Z,34.93
2018-11-23T03:07:45.923Z,34.80
2018-11-23T03:10:50.343Z,34.67
2018-11-23T03:13:54.779Z,35.17
2018-11-23T03:16:59.183Z,34.13
2018-11-23T03:20:03.626Z,34.27
2018-11-23T03:23:08.082Z,35.50
2018-11-23T03:26:12.602Z,36.07
2018-11-23T03:29:16.973Z,35.93
2018-11-23T03:32:21.387Z,35.27
2018-11-23T03:35:25.870Z,36.53
2018-11-23T03:38:30.298Z,35.23
2018-11-23T03:41:34.688Z,35.00
2018-11-23T03:44:39.061Z,36.40
2018-11-23T03:47:44.155Z,34.83
2018-11-23T03:50:48.681Z,35.70
2018-11-23T03:53:53.102Z,36.63
2018-11-23T03:56:57.420Z,35.23
2018-11-23T04:00:01.841Z,35.37
2018-11-23T04:03:06.809Z,37.60
2018-11-23T04:06:11.757Z,37.03
2018-11-23T04:09:23.668Z,37.23
2018-11-23T04:12:28.034Z,37.73
2018-11-23T04:15:32.406Z,37.17
2018-11-23T04:18:37.981Z,37.00
2018-11-23T04:21:42.604Z,37.10
2018-11-23T04:24:47.208Z,35.90
2018-11-23T04:27:51.654Z,36.70
2018-11-23T04:30:56.238Z,36.87
2018-11-23T04:34:00.963Z,36.47
2018-11-23T04:37:05.052Z,37.40
2018-11-23T04:40:11.360Z,37.37
2018-11-23T04:43:15.704Z,37.50
2018-11-23T04:46:20.077Z,37.67
2018-11-23T04:49:24.462Z,38.03
2018-11-23T04:52:28.843Z,37.90
2018-11-23T04:55:33.169Z,37.77
2018-11-23T04:58:37.581Z,36.90
2018-11-23T05:01:41.960Z,38.57
2018-11-23T05:04:46.309Z,39.27
2018-11-23T05:07:50.702Z,37.23
2018-11-23T05:10:55.026Z,39.50
2018-11-23T05:13:59.367Z,38.03
2018-11-23T05:17:03.771Z,37.00
2018-11-23T05:20:09.650Z,37.37
2018-11-23T05:23:14.029Z,39.30
2018-11-23T05:26:18.386Z,40.93
2018-11-23T05:29:22.733Z,37.60
2018-11-23T05:32:27.085Z,40.53
2018-11-23T05:35:31.409Z,39.53
2018-11-23T05:38:35.778Z,38.30
2018-11-23T05:41:40.140Z,37.77
2018-11-23T05:44:44.513Z,39.87
2018-11-23T05:47:48.879Z,40.50
2018-11-23T05:50:53.258Z,39.63
2018-11-23T05:53:57.614Z,39.80
2018-11-23T05:57:01.969Z,39.60
2018-11-23T06:00:14.282Z,40.17
2018-11-23T06:03:18.630Z,40.17
2018-11-23T06:06:22.966Z,38.43
2018-11-23T06:09:27.309Z,38.93
2018-11-23T06:12:31.655Z,40.53
2018-11-23T06:15:35.990Z,39.53
2018-11-23T06:18:40.363Z,37.40
2018-11-23T06:21:44.693Z,37.13
2018-11-23T06:24:49.078Z,38.63
2018-11-23T06:27:53.964Z,38.43
2018-11-23T06:30:58.307Z,38.67
2018-11-23T06:34:02.650Z,39.60
2018-11-23T06:37:07.003Z,39.07
2018-11-23T06:40:11.454Z,38.03
2018-11-23T06:43:15.851Z,41.27
2018-11-23T06:46:20.191Z,37.77
2018-11-23T06:49:24.527Z,41.37
2018-11-23T06:52:28.882Z,39.53
2018-11-23T06:55:33.219Z,39.23
2018-11-23T06:58:37.579Z,39.77
2018-11-23T07:01:41.866Z,38.97
2018-11-23T07:04:46.183Z,38.83
2018-11-23T07:07:50.486Z,37.77
2018-11-23T07:10:59.178Z,38.07
2018-11-23T07:14:04.032Z,36.67
2018-11-23T07:17:07.902Z,39.80
2018-11-23T07:20:13.898Z,38.47
2018-11-23T07:23:18.428Z,38.40
2018-11-23T07:26:22.755Z,39.33
2018-11-23T07:29:27.156Z,38.03
2018-11-23T07:32:31.480Z,38.93
2018-11-23T07:35:35.786Z,37.60
2018-11-23T07:38:40.091Z,40.73
2018-11-23T07:42:01.332Z,38.47
2018-11-23T07:45:07.162Z,38.87
2018-11-23T07:48:11.626Z,37.43
2018-11-23T07:51:15.954Z,39.27
2018-11-23T07:54:20.350Z,38.97
2018-11-23T07:57:24.721Z,40.57
2018-11-23T08:00:29.166Z,38.17
2018-11-23T08:03:33.503Z,38.10
2018-11-23T08:06:37.806Z,38.97
2018-11-23T08:09:42.581Z,35.60
2018-11-23T08:12:48.509Z,37.20
2018-11-23T08:15:52.834Z,38.63
2018-11-23T08:18:57.140Z,38.37
2018-11-23T08:22:01.435Z,35.97
2018-11-23T08:25:06.544Z,37.63
2018-11-23T08:28:10.827Z,37.20
2018-11-23T08:31:15.141Z,36.00
2018-11-23T08:34:19.412Z,36.50
2018-11-23T08:37:23.662Z,38.60
2018-11-23T08:40:28.624Z,36.43
2018-11-23T08:43:33.162Z,37.77
2018-11-23T08:46:37.497Z,37.37
2018-11-23T08:49:41.823Z,35.27
2018-11-23T08:52:46.116Z,35.90
2018-11-23T08:55:50.406Z,35.43
2018-11-23T08:58:54.713Z,37.23
2018-11-23T09:01:59.058Z,35.90
2018-11-23T09:05:03.432Z,35.37
2018-11-23T09:08:07.785Z,36.23
2018-11-23T09:11:12.078Z,36.20
2018-11-23T09:14:16.355Z,36.27
2018-11-23T09:17:20.658Z,34.70
2018-11-23T09:20:25.874Z,36.50
2018-11-23T09:23:30.136Z,33.70
2018-11-23T09:26:35.279Z,33.77
2018-11-23T09:29:39.602Z,32.73
2018-11-23T09:32:44.398Z,33.97
2018-11-23T09:35:48.694Z,31.63
2018-11-23T09:38:53.142Z,32.87
2018-11-23T09:41:57.432Z,33.77
2018-11-23T09:45:01.703Z,32.20
2018-11-23T09:48:07.276Z,32.03
2018-11-23T09:51:11.764Z,31.97
2018-11-23T09:54:16.075Z,31.77
2018-11-23T09:57:20.400Z,31.40
2018-11-23T10:00:27.810Z,30.53
2018-11-23T10:03:32.149Z,29.40
2018-11-23T10:06:36.463Z,33.97
2018-11-23T10:09:40.824Z,29.20
2018-11-23T10:12:45.174Z,30.33
2018-11-23T10:15:49.518Z,29.50
2018-11-23T10:18:53.826Z,28.67
2018-11-23T10:21:58.173Z,30.00
2018-11-23T10:25:02.571Z,30.00
2018-11-23T10:28:06.935Z,28.83
2018-11-23T10:31:11.283Z,30.17
2018-11-23T10:34:15.608Z,30.70
2018-11-23T10:37:19.958Z,29.43
2018-11-23T10:40:25.763Z,28.57
2018-11-23T10:43:30.106Z,30.43
2018-11-23T10:46:34.421Z,30.43
2018-11-23T10:49:38.751Z,28.87
2018-11-23T10:52:43.089Z,31.10
2018-11-23T10:55:47.424Z,30.97
2018-11-23T10:58:51.896Z,29.87
2018-11-23T11:02:01.508Z,30.23
2018-11-23T11:05:12.528Z,30.17
2018-11-23T11:08:16.861Z,28.70
2018-11-23T11:11:21.348Z,28.87
2018-11-23T11:14:25.676Z,28.70
2018-11-23T11:17:30.016Z,28.40
2018-11-23T11:20:34.324Z,28.03
2018-11-23T11:23:38.626Z,26.43
2018-11-23T11:26:42.914Z,27.50
2018-11-23T11:29:47.247Z,28.40
2018-11-23T11:32:51.602Z,29.93
2018-11-23T11:35:55.955Z,27.27
2018-11-23T11:39:00.246Z,26.37
2018-11-23T11:42:04.554Z,27.43
2018-11-23T11:45:12.166Z,27.80
2018-11-23T11:48:16.475Z,26.30
2018-11-23T11:51:20.795Z,26.67
2018-11-23T11:54:25.145Z,26.40
2018-11-23T11:57:29.454Z,27.43
2018-11-23T12:00:33.799Z,27.67
2018-11-23T12:03:38.117Z,28.73
2018-11-23T12:06:42.532Z,28.17
2018-11-23T12:09:49.068Z,29.70
2018-11-23T12:12:53.544Z,28.93
2018-11-23T12:15:57.923Z,27.67
2018-11-23T12:19:02.243Z,26.30
2018-11-23T12:22:06.599Z,24.87
2018-11-23T12:25:11.459Z,25.27
2018-11-23T12:28:15.786Z,25.63
2018-11-23T12:31:20.126Z,25.40
2018-11-23T12:34:24.472Z,25.60
2018-11-23T12:37:28.771Z,25.80
2018-11-23T12:40:33.099Z,23.63
2018-11-23T12:43:37.416Z,24.83
2018-11-23T12:46:41.800Z,26.23
2018-11-23T12:49:46.281Z,25.30
2018-11-23T12:52:50.683Z,25.97
2018-11-23T12:55:55.245Z,23.43
2018-11-23T12:58:59.619Z,23.43
2018-11-23T13:02:04.030Z,23.63
2018-11-23T13:05:08.419Z,24.60
2018-11-23T13:08:12.826Z,24.17
2018-11-23T13:11:17.317Z,24.97
2018-11-23T13:14:21.740Z,24.87
2018-11-23T13:17:26.119Z,24.37
2018-11-23T13:20:30.453Z,28.43
2018-11-23T13:23:34.824Z,24.43
2018-11-23T13:26:39.228Z,25.53
2018-11-23T13:29:44.267Z,24.70
2018-11-23T13:32:48.743Z,26.07
2018-11-23T13:35:53.162Z,25.00
2018-11-23T13:38:57.592Z,25.50
2018-11-23T13:42:01.980Z,27.00
2018-11-23T13:45:07.915Z,24.70
2018-11-23T13:48:12.283Z,26.27
2018-11-23T13:51:16.733Z,23.90
2018-11-23T13:54:21.161Z,25.30
2018-11-23T13:57:25.685Z,23.20
2018-11-23T14:00:30.825Z,23.37
2018-11-23T14:03:35.203Z,24.43
2018-11-23T14:06:39.647Z,23.63
2018-11-23T14:09:44.007Z,23.43
2018-11-23T14:12:48.583Z,24.40
2018-11-23T14:15:52.962Z,23.90
2018-11-23T14:18:57.399Z,24.43
2018-11-23T14:22:01.816Z,26.13
2018-11-23T14:25:06.607Z,25.23
2018-11-23T14:28:11.011Z,31.33
2018-11-23T14:31:15.428Z,30.53
2018-11-23T14:34:19.819Z,25.93
2018-11-23T14:37:24.246Z,26.83
2018-11-23T14:40:28.724Z,33.73
2018-11-23T14:43:33.128Z,30.47
2018-11-23T14:46:37.556Z,32.00
2018-11-23T14:49:41.960Z,31.23
2018-11-23T14:52:47.771Z,28.30
2018-11-23T14:55:52.208Z,26.33
2018-11-23T14:58:56.603Z,23.97
2018-11-23T15:02:01.012Z,24.90
2018-11-23T15:05:06.748Z,25.30
2018-11-23T15:08:11.972Z,24.93
2018-11-23T15:11:16.487Z,25.93
2018-11-23T15:14:20.802Z,25.60
2018-11-23T15:17:25.072Z,25.73
2018-11-23T15:20:33.546Z,24.93
2018-11-23T15:23:37.835Z,27.33
2018-11-23T15:26:42.179Z,27.03
2018-11-23T15:29:46.462Z,26.20
2018-11-23T15:32:51.294Z,24.83
2018-11-23T15:35:55.627Z,26.23
2018-11-23T15:39:00.007Z,26.63
2018-11-23T15:42:04.347Z,24.73
2018-11-23T15:45:13.042Z,27.67
2018-11-23T15:48:17.398Z,26.07
2018-11-23T15:51:21.720Z,24.53
2018-11-23T15:54:26.096Z,26.10
2018-11-23T15:57:30.493Z,29.77
2018-11-23T16:00:36.216Z,31.80
2018-11-23T16:03:40.610Z,30.43
2018-11-23T16:06:45.012Z,33.33
2018-11-23T16:09:49.434Z,33.30
2018-11-23T16:12:55.345Z,34.97
2018-11-23T16:15:59.746Z,30.93
2018-11-23T16:19:04.234Z,29.87
2018-11-23T16:22:08.703Z,29.37
2018-11-23T16:25:13.349Z,31.47
2018-11-23T16:28:17.788Z,28.67
2018-11-23T16:31:22.232Z,29.83
2018-11-23T16:34:26.686Z,30.60
2018-11-23T16:37:31.090Z,29.03
2018-11-23T16:40:37.489Z,29.97
2018-11-23T16:43:41.912Z,27.80
2018-11-23T16:46:46.354Z,28.53
2018-11-23T16:49:51.186Z,31.27
2018-11-23T16:53:01.547Z,31.30
2018-11-23T16:56:06.463Z,31.60
2018-11-23T16:59:10.849Z,29.10
2018-11-23T17:02:15.346Z,28.23
2018-11-23T17:05:21.364Z,30.93
2018-11-23T17:08:26.044Z,44.60
2018-11-23T17:11:30.580Z,30.37
2018-11-23T17:14:35.101Z,27.60
2018-11-23T17:17:39.671Z,26.87
2018-11-23T17:20:44.178Z,27.03
2018-11-23T17:23:48.601Z,27.23
2018-11-23T17:26:53.250Z,27.27
2018-11-23T17:29:57.795Z,26.93
2018-11-23T17:33:02.373Z,28.17
2018-11-23T17:36:06.968Z,27.40
2018-11-23T17:39:11.495Z,25.70
2018-11-23T17:42:15.924Z,26.23
2018-11-23T17:45:24.409Z,25.57
2018-11-23T17:48:28.873Z,26.93
2018-11-23T17:51:33.263Z,27.63
2018-11-23T17:54:37.679Z,27.00
2018-11-23T17:57:42.688Z,26.00
2018-11-23T18:00:47.094Z,27.83
2018-11-23T18:03:51.515Z,26.53
2018-11-23T18:06:55.913Z,30.40
2018-11-23T18:10:00.353Z,26.37
2018-11-23T18:13:05.147Z,52.83
2018-11-23T18:16:09.575Z,33.00
2018-11-23T18:19:13.948Z,29.43
2018-11-23T18:22:18.375Z,29.27
2018-11-23T18:25:26.086Z,27.60
2018-11-23T18:28:30.532Z,31.07
2018-11-23T18:31:34.939Z,30.03
2018-11-23T18:34:39.380Z,28.57
2018-11-23T18:37:43.792Z,28.33
2018-11-23T18:40:48.163Z,30.23
2018-11-23T18:43:52.591Z,28.40
2018-11-23T18:46:56.976Z,30.70
2018-11-23T18:50:01.508Z,30.97
2018-11-23T18:53:06.044Z,33.93
2018-11-23T18:56:10.583Z,35.50
2018-11-23T18:59:15.019Z,37.93
2018-11-23T19:02:19.460Z,37.13
2018-11-23T19:05:26.922Z,36.60
2018-11-23T19:08:31.367Z,37.67
2018-11-23T19:11:35.792Z,33.70
2018-11-23T19:14:40.260Z,34.73
2018-11-23T19:17:44.671Z,38.53
2018-11-23T19:20:49.120Z,38.97
2018-11-23T19:23:53.620Z,37.87
2018-11-23T19:26:58.054Z,35.80
2018-11-23T19:30:02.432Z,37.80
2018-11-23T19:33:06.837Z,36.90
2018-11-23T19:36:11.227Z,36.60
2018-11-23T19:39:15.663Z,39.37
2018-11-23T19:42:20.047Z,38.13
2018-11-23T19:45:24.437Z,37.97
2018-11-23T19:48:28.855Z,61.80
2018-11-23T19:51:33.198Z,43.97
2018-11-23T19:54:37.589Z,39.97
2018-11-23T19:57:41.999Z,40.17
2018-11-23T20:00:46.382Z,38.43
2018-11-23T20:03:50.699Z,36.33
2018-11-23T20:06:55.128Z,52.60
2018-11-23T20:09:59.487Z,38.53
2018-11-23T20:13:03.924Z,41.53
2018-11-23T20:16:08.298Z,43.27
2018-11-23T20:19:12.749Z,45.93
2018-11-23T20:22:17.136Z,60.07
2018-11-23T20:25:21.936Z,48.87
2018-11-23T20:28:26.290Z,70.10
2018-11-23T20:31:30.628Z,55.90
2018-11-23T20:34:35.003Z,45.57
2018-11-23T20:37:39.376Z,41.00
2018-11-23T20:40:43.778Z,43.67
2018-11-23T20:43:48.116Z,37.70
2018-11-23T20:46:52.456Z,36.30
2018-11-23T20:49:56.792Z,36.70
2018-11-23T20:53:01.179Z,39.03
2018-11-23T20:56:05.548Z,37.13
2018-11-23T20:59:09.941Z,38.57
2018-11-23T21:02:14.376Z,41.23
2018-11-23T21:05:20.525Z,38.37
2018-11-23T21:08:24.902Z,37.27
2018-11-23T21:11:29.263Z,36.87
2018-11-23T21:14:33.587Z,35.47
2018-11-23T21:17:37.916Z,37.87
2018-11-23T21:20:42.207Z,37.70
2018-11-23T21:23:46.534Z,40.97
2018-11-23T21:26:50.866Z,42.90
2018-11-23T21:29:55.232Z,39.97
2018-11-23T21:32:59.645Z,38.33
2018-11-23T21:36:03.991Z,37.90
2018-11-23T21:39:13.723Z,37.43
2018-11-23T21:42:15.149Z,37.47
2018-11-23T21:45:20.685Z,36.83
2018-11-23T21:48:25.004Z,38.20
2018-11-23T21:51:29.318Z,37.03
2018-11-23T21:54:33.640Z,38.67
2018-11-23T21:57:37.964Z,41.67
2018-11-23T22:00:42.329Z,35.93
2018-11-23T22:03:46.827Z,36.27
2018-11-23T22:06:52.385Z,39.57
2018-11-23T22:09:56.707Z,35.60
2018-11-23T22:13:01.071Z,36.60
2018-11-23T22:16:06.305Z,35.90
2018-11-23T22:19:10.650Z,36.80
2018-11-23T22:22:14.993Z,36.27
2018-11-23T22:25:20.850Z,35.90
2018-11-23T22:28:25.184Z,36.00
2018-11-23T22:31:29.666Z,34.77
2018-11-23T22:34:34.052Z,36.80
2018-11-23T22:37:38.396Z,33.70
2018-11-23T22:40:42.744Z,34.20
2018-11-23T22:43:47.075Z,35.60
2018-11-23T22:46:51.454Z,35.00
2018-11-23T22:49:55.790Z,34.40
2018-11-23T22:53:00.155Z,37.23
2018-11-23T22:56:04.703Z,33.40
2018-11-23T22:59:09.020Z,37.50
2018-11-23T23:02:13.367Z,33.93
2018-11-23T23:05:18.169Z,33.97
2018-11-23T23:08:22.470Z,35.53
2018-11-23T23:11:26.767Z,34.97
2018-11-23T23:14:31.105Z,35.83
2018-11-23T23:17:35.465Z,36.30
2018-11-23T23:20:39.853Z,36.10
2018-11-23T23:23:44.192Z,34.80
2018-11-23T23:26:48.545Z,33.63
2018-11-23T23:29:52.863Z,32.70
2018-11-23T23:32:57.228Z,33.40
2018-11-23T23:36:01.577Z,34.67
2018-11-23T23:39:08.760Z,36.10
2018-11-23T23:42:13.047Z,32.77
2018-11-23T23:45:19.475Z,35.87
2018-11-23T23:48:23.832Z,35.23
2018-11-23T23:51:28.199Z,35.17
2018-11-23T23:54:32.497Z,36.23
2018-11-23T23:57:36.837Z,37.00
